Time;durP1;ratioP1;P1;durP2;ratioP2;P2;SDS_P1;SDS_P2;PMS_P1;PMS_P2;Temp;Humidity;BMP_temperature;BMP_pressure;BME280_temperature;BME280_humidity;BME280_pressure;Samples;Min_cycle;Max_cycle;Signal;HPM_P1;HPM_P2
2022/05/07 00:02:22;;;;;;;49.65;36.72;;;13.00;99.90;;;;;;5280615;23;20041;-75
2022/05/07 00:05:19;;;;;;;53.35;39.03;;;12.40;99.90;;;;;;4907929;29;20048;-74
2022/05/07 00:07:53;;;;;;;50.15;38.88;;;12.90;99.90;;;;;;5215261;23;20041;-76
2022/05/07 00:13:26;;;;;;;63.88;40.97;;;13.00;99.90;;;;;;5889263;23;20035;-76
2022/05/07 00:19:03;;;;;;;53.38;39.88;;;13.10;99.90;;;;;;4909074;29;20041;-75
2022/05/07 00:21:39;;;;;;;56.38;38.88;;;13.10;99.90;;;;;;4891896;29;20051;-77
2022/05/07 00:46:40;;;;;;;53.13;40.90;;;13.40;99.90;;;;;;5172802;23;20072;-77
2022/05/07 01:11:52;;;;;;;54.08;40.15;;;13.50;99.90;;;;;;5026895;23;20060;-74
2022/05/07 01:17:08;;;;;;;52.35;39.00;;;13.40;99.90;;;;;;4966907;23;20143;-74
2022/05/07 01:22:46;;;;;;;60.67;41.58;;;13.50;99.90;;;;;;4922206;29;20033;-75
2022/05/07 01:33:53;;;;;;;58.83;41.05;;;13.50;99.90;;;;;;4923048;29;20041;-75
2022/05/07 01:36:39;;;;;;;53.72;38.55;;;13.50;99.90;;;;;;4922829;29;20049;-75
2022/05/07 01:39:16;;;;;;;54.05;38.95;;;13.60;99.90;;;;;;4891168;29;20040;-76
2022/05/07 01:50:42;;;;;;;54.40;38.20;;;13.50;99.90;;;;;;4906669;29;20055;-77
2022/05/07 01:53:15;;;;;;;53.55;37.20;;;13.50;99.90;;;;;;4921874;29;20044;-75
2022/05/07 02:13:54;;;;;;;46.83;34.75;;;13.50;99.90;;;;;;5912961;23;20027;-76
2022/05/07 02:16:51;;;;;;;50.25;34.22;;;13.30;99.90;;;;;;4921038;29;20104;-76
2022/05/07 02:32:52;;;;;;;46.95;32.72;;;13.70;99.90;;;;;;5067208;23;20063;-75
2022/05/07 02:35:48;;;;;;;55.30;37.60;;;13.70;99.90;;;;;;4876028;29;20039;-75
2022/05/07 02:38:39;;;;;;;46.42;32.53;;;13.40;99.90;;;;;;4908982;29;20063;-75
2022/05/07 02:44:09;;;;;;;54.67;36.47;;;13.80;99.90;;;;;;5894158;23;20023;-75
2022/05/07 03:03:46;;;;;;;47.95;33.30;;;13.80;99.90;;;;;;5781553;23;20072;-76
2022/05/07 03:06:14;;;;;;;45.03;31.15;;;14.50;99.90;;;;;;4923807;29;20040;-77
2022/05/07 03:08:40;;;;;;;45.20;31.80;;;14.20;99.90;;;;;;4926191;29;20033;-75
2022/05/07 03:11:09;;;;;;;44.20;32.40;;;14.40;99.90;;;;;;4925815;29;20027;-76
2022/05/07 03:22:00;;;;;;;45.60;32.90;;;13.80;99.90;;;;;;4962542;23;20060;-76
2022/05/07 03:32:25;;;;;;;46.30;34.47;;;13.70;99.90;;;;;;5820668;23;20053;-75
2022/05/07 03:46:37;;;;;;;45.03;31.70;;;13.50;99.90;;;;;;5908758;23;19926;-74
2022/05/07 03:49:30;;;;;;;46.55;32.60;;;;;;;;;;5156515;23;20080;-75
2022/05/07 04:11:22;;;;;;;42.47;31.15;;;13.50;99.90;;;;;;5717329;23;20057;-74
2022/05/07 04:29:31;;;;;;;39.63;30.77;;;13.60;99.90;;;;;;5209545;23;19923;-74
2022/05/07 04:39:29;;;;;;;44.63;34.15;;;13.60;99.90;;;;;;5794829;23;20080;-73
2022/05/07 04:48:14;;;;;;;46.28;31.58;;;13.50;99.90;;;;;;5390725;23;20052;-73
2022/05/07 04:54:34;;;;;;;45.90;32.40;;;13.60;99.90;;;;;;5968991;23;20109;31
2022/05/07 04:58:16;;;;;;;47.65;34.72;;;13.70;99.90;;;;;;4866601;29;20061;-74
2022/05/07 05:09:57;;;;;;;50.10;35.63;;;13.70;99.90;;;;;;5426998;23;20072;-76
2022/05/07 05:12:56;;;;;;;48.70;33.90;;;13.70;99.90;;;;;;4905728;29;20045;-77
2022/05/07 05:15:32;;;;;;;43.92;35.00;;;13.70;99.90;;;;;;4902944;29;20113;-74
2022/05/07 05:18:13;;;;;;;50.95;36.88;;;13.80;99.90;;;;;;4887764;29;20060;-74
2022/05/07 05:20:46;;;;;;;52.17;37.28;;;13.80;99.90;;;;;;4872220;29;20044;-74
2022/05/07 05:23:24;;;;;;;46.70;36.97;;;13.80;99.90;;;;;;4887997;29;20040;-76
2022/05/07 05:26:00;;;;;;;48.40;36.67;;;13.70;99.90;;;;;;4873546;29;20049;-75
2022/05/07 05:28:40;;;;;;;47.03;34.60;;;13.80;99.90;;;;;;4903238;29;20057;-73
2022/05/07 05:34:55;;;;;;;43.42;31.92;;;13.90;99.90;;;;;;4874063;29;20057;-74
2022/05/07 05:37:48;;;;;;;47.10;32.28;;;14.00;99.90;;;;;;4974490;23;20041;-75
2022/05/07 05:40:26;;;;;;;41.22;32.70;;;14.00;99.90;;;;;;4885515;29;20053;-75
2022/05/07 05:43:00;;;;;;;41.58;31.92;;;14.00;99.90;;;;;;4888959;29;20021;-76
2022/05/07 05:45:45;;;;;;;38.45;30.30;;;14.10;99.90;;;;;;4824586;29;20039;-75
2022/05/07 06:28:50;;;;;;;37.25;28.60;;;15.30;99.90;;;;;;5000492;23;20044;-75
2022/05/07 06:31:48;;;;;;;32.42;25.27;;;;;;;;;;4922462;29;20052;-76
2022/05/07 06:34:49;;;;;;;33.15;28.13;;;;;;;;;;4920841;29;20037;-76
2022/05/07 06:38:11;;;;;;;28.10;24.10;;;15.70;99.90;;;;;;4922786;29;20056;-74
2022/05/07 06:40:44;;;;;;;32.05;27.50;;;15.60;99.90;;;;;;4906013;29;20048;-75
2022/05/07 06:46:29;;;;;;;31.15;24.58;;;16.20;99.90;;;;;;5137729;23;20064;-73
2022/05/07 06:49:18;;;;;;;28.73;24.38;;;16.00;99.90;;;;;;5433890;23;20055;-75
2022/05/07 07:12:33;;;;;;;39.42;29.60;;;17.00;99.90;;;;;;5353864;23;20044;-80
2022/05/07 07:15:20;;;;;;;43.75;33.28;;;16.50;99.90;;;;;;4866184;29;20039;-77
2022/05/07 07:26:30;;;;;;;48.13;32.72;;;17.60;99.90;;;;;;5439554;23;20032;-73
2022/05/07 07:29:44;;;;;;;40.90;30.30;;;;;;;;;;4906415;29;20113;-74
2022/05/07 08:41:19;;;;;;;55.50;38.00;;;18.40;99.90;;;;;;4886297;29;20078;-75
2022/05/07 08:44:42;;;;;;;45.72;33.35;;;18.30;99.90;;;;;;4861716;29;20093;-73
2022/05/07 08:53:39;;;;;;;44.03;31.67;;;18.70;99.90;;;;;;5453189;23;20040;-74
2022/05/07 09:16:19;;;;;;;36.60;26.83;;;19.50;99.90;;;;;;5370878;23;20036;-73
2022/05/07 09:19:28;;;;;;;35.97;28.55;;;19.50;99.90;;;;;;4922905;29;20047;-75
2022/05/07 09:22:12;;;;;;;34.75;27.65;;;19.40;99.90;;;;;;4923577;29;20055;-73
2022/05/07 09:25:04;;;;;;;39.67;30.52;;;19.50;99.90;;;;;;4883122;29;20128;-74
2022/05/07 09:43:08;;;;;;;34.15;25.63;;;20.30;99.90;;;;;;4923002;29;20091;-74
2022/05/07 10:03:14;;;;;;;40.25;31.95;;;20.50;99.90;;;;;;4535673;27;20076;-73
2022/05/07 10:10:11;;;;;;;41.70;29.15;;;21.30;99.50;;;;;;4872340;29;20057;-72
2022/05/07 10:47:36;;;;;;;41.58;32.17;;;20.10;98.40;;;;;;5401800;23;20032;-74
2022/05/07 10:58:06;;;;;;;34.70;27.38;;;20.30;99.80;;;;;;4847420;29;20047;-72
2022/05/07 11:09:38;;;;;;;32.67;25.08;;;20.40;98.60;;;;;;5687025;23;20080;-73
2022/05/07 11:12:45;;;;;;;32.67;22.42;;;20.20;98.70;;;;;;4890423;29;20110;-75
2022/05/07 11:18:34;;;;;;;33.08;23.52;;;20.00;99.90;;;;;;5776006;23;20106;-73
2022/05/07 12:12:57;;;;;;;12.40;9.55;;;19.60;99.50;;;;;;5831921;23;20043;-71
2022/05/07 17:09:22;;;;;;;12.23;4.13;;;19.40;78.90;;;;;;5020671;23;20100;-73
2022/05/07 17:12:33;;;;;;;10.82;3.45;;;19.40;80.90;;;;;;4923229;29;20056;-74
2022/05/07 17:15:03;;;;;;;9.60;3.78;;;18.80;82.50;;;;;;4868156;29;20042;-73
2022/05/07 17:18:17;;;;;;;10.70;3.72;;;18.40;86.40;;;;;;4859501;29;20081;-73
2022/05/07 17:29:36;;;;;;;10.38;4.30;;;;;;;;;;5336132;23;20028;-72
2022/05/07 17:32:39;;;;;;;10.07;4.40;;;17.30;92.70;;;;;;4890308;29;20039;-74
2022/05/07 17:35:23;;;;;;;11.15;4.65;;;17.20;93.20;;;;;;4856752;29;20042;-73
2022/05/07 17:41:53;;;;;;;11.73;4.50;;;17.30;94.40;;;;;;4877117;29;20086;-73
2022/05/07 17:44:42;;;;;;;11.02;4.07;;;16.30;95.50;;;;;;4870170;29;20048;-73
2022/05/07 17:47:14;;;;;;;11.95;3.78;;;16.40;95.90;;;;;;4870385;29;20049;-76
2022/05/07 17:55:40;;;;;;;10.75;4.65;;;15.60;97.90;;;;;;5308714;23;20073;-75
2022/05/07 18:01:41;;;;;;;10.10;3.72;;;15.40;98.80;;;;;;5367176;23;20047;-74
2022/05/07 18:04:32;;;;;;;11.50;3.97;;;15.00;99.20;;;;;;4921302;29;20060;-74
2022/05/07 18:18:46;;;;;;;10.55;4.97;;;;;;;;;;5738555;23;20124;-75
2022/05/07 18:21:50;;;;;;;11.68;4.45;;;;;;;;;;4922267;29;20044;-73
2022/05/07 18:27:26;;;;;;;13.60;5.22;;;;;;;;;;5336247;23;20058;-72
2022/05/07 18:30:01;;;;;;;13.55;5.68;;;;;;;;;;4904842;29;20056;-73
2022/05/07 18:32:31;;;;;;;11.57;5.05;;;;;;;;;;4889909;29;20056;-75
2022/05/07 18:35:11;;;;;;;14.38;4.97;;;;;;;;;;4905792;29;20045;-72
2022/05/07 18:45:11;;;;;;;14.10;6.40;;;14.10;99.90;;;;;;4921632;29;20080;-72
2022/05/07 18:48:13;;;;;;;11.55;7.00;;;14.10;99.90;;;;;;4906021;29;20100;-74
2022/05/07 18:50:43;;;;;;;16.95;6.25;;;14.10;99.90;;;;;;4838915;29;20058;-75
2022/05/07 18:53:37;;;;;;;15.73;7.47;;;14.00;99.90;;;;;;4851105;29;20053;-73
2022/05/07 18:59:03;;;;;;;14.20;6.57;;;14.00;99.90;;;;;;4867683;29;20443;-73
2022/05/07 19:01:29;;;;;;;15.93;5.90;;;14.20;99.90;;;;;;4853417;29;20037;-74
2022/05/07 19:03:56;;;;;;;14.48;6.38;;;14.00;99.90;;;;;;4837437;29;20041;-73
2022/05/07 19:06:40;;;;;;;14.52;5.80;;;14.00;99.90;;;;;;4851500;29;20034;-72
2022/05/07 19:13:33;;;;;;;17.50;6.07;;;13.90;99.90;;;;;;4864305;29;20097;-73
2022/05/07 19:16:09;;;;;;;16.33;5.32;;;13.70;99.90;;;;;;4848932;29;20061;-74
2022/05/07 19:18:46;;;;;;;20.17;5.63;;;13.50;99.90;;;;;;4864450;29;20030;-72
2022/05/07 19:21:18;;;;;;;15.65;6.43;;;13.40;99.90;;;;;;4862420;29;20048;-72
2022/05/07 19:28:20;;;;;;;18.35;5.95;;;13.40;99.90;;;;;;4901170;29;20086;-73
2022/05/07 19:31:12;;;;;;;23.67;6.03;;;13.10;99.90;;;;;;4888288;29;20052;-74
2022/05/07 19:33:42;;;;;;;15.68;5.95;;;13.00;99.90;;;;;;4844823;29;20059;-74
2022/05/07 19:36:20;;;;;;;22.27;5.63;;;12.80;99.90;;;;;;4827188;29;20054;-74
2022/05/07 19:47:03;;;;;;;20.92;6.18;;;12.50;99.90;;;;;;4863446;29;20078;-73
2022/05/07 19:50:00;;;;;;;22.75;5.55;;;12.30;99.90;;;;;;4836092;29;20050;-73
2022/05/07 19:52:34;;;;;;;31.38;6.65;;;12.20;99.90;;;;;;4800021;29;20046;-76
2022/05/07 20:02:51;;;;;;;21.35;5.13;;;11.90;99.90;;;;;;4830142;29;20085;-73
2022/05/07 20:05:20;;;;;;;23.33;6.32;;;11.80;99.90;;;;;;4800032;29;20063;-75
2022/05/07 20:07:59;;;;;;;23.85;5.65;;;11.80;99.90;;;;;;4815463;29;20042;-74
2022/05/07 20:13:58;;;;;;;24.05;4.93;;;;;;;;;;4814757;29;20058;-74
2022/05/07 20:16:25;;;;;;;25.63;5.45;;;11.50;99.90;;;;;;4815628;29;20050;-75
2022/05/07 20:18:57;;;;;;;29.80;6.80;;;11.40;99.90;;;;;;4854437;29;20142;-73
2022/05/07 20:24:22;;;;;;;30.20;6.95;;;11.30;99.90;;;;;;4863434;29;20057;-73
2022/05/07 20:27:13;;;;;;;28.50;5.88;;;11.20;99.90;;;;;;4846966;29;20057;-73
2022/05/07 20:29:44;;;;;;;33.55;7.38;;;11.20;99.90;;;;;;4850955;29;20045;-74
2022/05/07 20:32:12;;;;;;;28.92;6.40;;;;;;;;;;4835924;29;20137;-74
2022/05/07 20:34:39;;;;;;;30.52;5.93;;;;;;;;;;4849600;29;20087;-72
2022/05/07 20:37:08;;;;;;;31.63;5.68;;;;;;;;;;4884426;29;20056;-74
2022/05/07 20:46:26;;;;;;;27.30;5.90;;;10.80;99.90;;;;;;4888210;29;20083;-74
2022/05/07 20:49:04;;;;;;;28.45;6.85;;;10.80;99.90;;;;;;4887994;29;20060;-72
2022/05/07 20:51:32;;;;;;;24.02;5.15;;;10.70;99.90;;;;;;4872402;29;20052;-73
2022/05/07 20:54:45;;;;;;;27.25;6.55;;;10.70;99.90;;;;;;4872478;29;20037;-73
2022/05/07 20:57:21;;;;;;;27.13;6.35;;;10.60;99.90;;;;;;4892363;29;20053;-74
2022/05/07 20:59:47;;;;;;;28.52;6.45;;;10.50;99.90;;;;;;4890929;29;20092;-73
2022/05/07 21:02:14;;;;;;;33.75;6.53;;;10.40;99.90;;;;;;4890234;29;20048;-73
2022/05/07 21:04:40;;;;;;;29.50;6.72;;;9.80;99.90;;;;;;4875730;29;20109;-74
2022/05/07 21:07:09;;;;;;;29.05;5.68;;;10.30;99.90;;;;;;4904744;29;20044;-74
2022/05/07 21:10:33;;;;;;;28.73;6.28;;;10.40;99.90;;;;;;4903217;29;20051;-73
2022/05/07 21:13:03;;;;;;;20.15;4.47;;;10.30;99.90;;;;;;4901829;29;20048;-72
2022/05/07 21:15:50;;;;;;;24.42;5.03;;;10.80;99.90;;;;;;4904508;29;20044;-74
2022/05/07 21:20:52;;;;;;;24.65;5.05;;;10.20;99.90;;;;;;5006837;23;20068;-73
2022/05/07 21:23:26;;;;;;;33.15;6.25;;;;;;;;;;4906205;29;20068;-74
2022/05/07 21:28:47;;;;;;;;;;;10.00;99.90;;;;;;4903365;29;20028;-74
2022/05/07 21:31:13;;;;;;;22.40;5.13;;;;;;;;;;4897233;29;19923;-73
2022/05/07 21:33:49;;;;;;;28.65;5.03;;;;;;;;;;4907802;29;20049;-75
2022/05/07 21:36:26;;;;;;;23.13;5.22;;;;;;;;;;4894721;29;20068;-75
2022/05/07 21:38:53;;;;;;;29.50;4.65;;;9.90;99.90;;;;;;4890452;29;20040;-74
2022/05/07 21:41:25;;;;;;;27.77;5.05;;;9.60;99.90;;;;;;5677615;23;20113;-77
2022/05/07 21:43:58;;;;;;;33.10;7.47;;;;;;;;;;4892472;29;20032;-75
2022/05/07 21:46:37;;;;;;;24.13;5.80;;;9.80;99.90;;;;;;4891772;29;20032;-76
2022/05/07 21:49:10;;;;;;;27.35;5.03;;;9.10;99.90;;;;;;4906805;29;20105;-77
2022/05/07 21:51:54;;;;;;;29.60;4.90;;;10.70;99.90;;;;;;4858593;29;20432;-76
2022/05/07 21:54:28;;;;;;;35.90;6.78;;;9.70;99.90;;;;;;4886143;29;20048;-76
2022/05/07 21:57:15;;;;;;;25.15;5.40;;;9.60;99.90;;;;;;4885476;29;20147;-74
2022/05/07 21:59:43;;;;;;;29.90;5.70;;;;;;;;;;4856104;29;20053;-74
2022/05/07 22:02:09;;;;;;;24.80;5.50;;;;;;;;;;4872742;29;20057;-73
2022/05/07 22:04:38;;;;;;;28.45;6.00;;;;;;;;;;4872812;29;20048;-74
2022/05/07 22:07:08;;;;;;;19.92;5.68;;;;;;;;;;4903978;29;20056;-74
2022/05/07 22:13:22;;;;;;;24.42;5.32;;;9.80;99.90;;;;;;4903662;29;20094;-75
2022/05/07 22:15:59;;;;;;;29.50;6.00;;;9.10;99.90;;;;;;4888795;29;20024;-74
2022/05/07 22:18:36;;;;;;;31.20;5.43;;;9.30;99.90;;;;;;4873292;29;20041;-73
2022/05/07 22:21:05;;;;;;;22.13;5.50;;;9.30;99.90;;;;;;4872268;29;20040;-73
2022/05/07 22:23:34;;;;;;;29.20;6.00;;;9.40;99.90;;;;;;4872241;29;20066;-74
2022/05/07 22:26:40;;;;;;;22.60;4.95;;;9.30;99.90;;;;;;4903542;29;20036;-73
2022/05/07 22:29:09;;;;;;;23.77;5.03;;;9.30;99.90;;;;;;4887745;29;20036;-75
2022/05/07 22:31:35;;;;;;;29.75;5.07;;;9.20;99.90;;;;;;4871229;29;20048;-73
2022/05/07 22:34:08;;;;;;;26.70;5.45;;;9.20;99.90;;;;;;4903261;29;20076;-76
2022/05/07 22:36:35;;;;;;;34.80;5.88;;;9.20;99.90;;;;;;4882215;29;20108;-75
2022/05/07 22:39:02;;;;;;;27.25;5.10;;;9.20;99.90;;;;;;4869264;29;20025;-74
2022/05/07 22:41:32;;;;;;;29.38;5.55;;;9.10;99.90;;;;;;4903124;29;20093;-74
2022/05/07 22:44:00;;;;;;;25.70;5.70;;;9.10;99.90;;;;;;4870732;29;20120;-75
2022/05/07 22:46:25;;;;;;;24.15;4.93;;;9.10;99.90;;;;;;4871632;29;20056;-74
2022/05/07 22:48:51;;;;;;;25.08;6.18;;;9.10;99.90;;;;;;4849634;29;20125;-75
2022/05/07 22:51:19;;;;;;;26.13;5.82;;;9.00;99.90;;;;;;4849543;29;20088;-74
2022/05/07 22:53:45;;;;;;;31.17;5.90;;;9.00;99.90;;;;;;4834260;29;20065;-75
2022/05/07 22:56:48;;;;;;;32.35;5.82;;;9.00;99.90;;;;;;4834457;29;20049;-75
2022/05/07 22:59:14;;;;;;;30.55;5.50;;;9.00;99.90;;;;;;4849781;29;20042;-75
2022/05/07 23:01:40;;;;;;;28.25;6.20;;;8.90;99.90;;;;;;4834176;29;20074;-76
2022/05/07 23:04:10;;;;;;;22.95;5.68;;;8.90;99.90;;;;;;4849596;29;20042;-73
2022/05/07 23:06:39;;;;;;;21.08;4.50;;;8.90;99.90;;;;;;4848660;29;20060;-75
2022/05/07 23:09:08;;;;;;;30.63;8.07;;;8.80;99.90;;;;;;4850332;29;20078;-73
2022/05/07 23:11:36;;;;;;;29.80;6.53;;;8.80;99.90;;;;;;4849411;29;20030;-73
2022/05/07 23:14:05;;;;;;;23.60;4.95;;;8.80;99.90;;;;;;4820815;29;20068;-74
2022/05/07 23:16:31;;;;;;;31.83;6.40;;;8.70;99.90;;;;;;4847822;29;20045;-74
2022/05/07 23:19:01;;;;;;;22.80;5.05;;;8.70;99.90;;;;;;4833153;29;20038;-74
2022/05/07 23:21:31;;;;;;;26.60;5.75;;;8.70;99.90;;;;;;4830797;29;20038;-75
2022/05/07 23:23:59;;;;;;;23.25;5.28;;;8.60;99.90;;;;;;4835021;29;20162;-75
2022/05/07 23:26:28;;;;;;;31.15;5.65;;;8.60;99.90;;;;;;4860790;29;20069;-75
2022/05/07 23:28:55;;;;;;;17.35;5.78;;;8.50;99.90;;;;;;4874182;29;20412;-76
2022/05/07 23:31:24;;;;;;;30.73;5.32;;;8.50;99.90;;;;;;4875159;29;20056;-74
2022/05/07 23:33:53;;;;;;;32.35;5.72;;;8.40;99.90;;;;;;4887626;29;20064;-74
2022/05/07 23:36:22;;;;;;;28.15;5.50;;;8.60;99.90;;;;;;4889564;29;20052;-76
2022/05/07 23:38:49;;;;;;;25.38;5.22;;;8.40;99.90;;;;;;4867614;29;20057;-75
2022/05/07 23:41:15;;;;;;;21.83;6.07;;;8.40;99.90;;;;;;4873923;29;20049;-75
2022/05/07 23:43:41;;;;;;;29.85;5.68;;;8.40;99.90;;;;;;4905563;29;20081;-76
2022/05/07 23:46:08;;;;;;;26.65;4.90;;;8.30;99.90;;;;;;4873940;29;20070;-73
2022/05/07 23:48:37;;;;;;;21.40;5.25;;;8.30;99.90;;;;;;4889911;29;20032;-73
2022/05/07 23:51:07;;;;;;;26.63;5.35;;;8.30;99.90;;;;;;4904917;29;20053;-75
2022/05/07 23:53:36;;;;;;;19.38;4.22;;;8.30;99.90;;;;;;4874450;29;20060;-74
2022/05/07 23:56:05;;;;;;;24.75;5.85;;;8.40;99.90;;;;;;4873348;29;20082;-75
2022/05/07 23:58:32;;;;;;;21.88;4.72;;;8.30;99.90;;;;;;4871965;29;20061;-73
